createdAt,value
2022-08-04T00:02:57.696Z,99021.16
2022-08-04T00:08:08.895Z,99013.97
2022-08-04T00:13:13.503Z,99018.53
2022-08-04T00:18:18.609Z,99021.91
2022-08-04T00:23:24.786Z,99021.09
2022-08-04T00:28:29.170Z,99021.97
2022-08-04T00:33:33.382Z,99024.38
2022-08-04T00:38:38.686Z,99021.59
2022-08-04T00:43:54.277Z,99023.22
2022-08-04T00:49:30.345Z,99020.47
2022-08-04T00:54:43.073Z,99026.44
2022-08-04T00:59:58.626Z,99033.09
2022-08-04T01:05:06.251Z,99026.88
2022-08-04T01:10:20.851Z,99027.97
2022-08-04T01:15:59.971Z,99023.50
2022-08-04T01:21:18.421Z,99028.53
2022-08-04T01:26:57.457Z,99022.25
2022-08-04T01:32:10.427Z,99026.44
2022-08-04T01:37:26.228Z,99021.00
2022-08-04T01:42:32.662Z,99024.59
2022-08-04T01:47:39.047Z,99022.50
2022-08-04T01:52:47.718Z,99022.09
2022-08-04T01:57:54.633Z,99026.00
2022-08-04T02:02:59.326Z,99027.84
2022-08-04T02:08:16.288Z,99028.50
2022-08-04T02:13:28.068Z,99025.56
2022-08-04T02:18:45.307Z,99016.72
2022-08-04T02:23:55.102Z,99017.06
2022-08-04T02:29:04.932Z,99012.28
2022-08-04T02:34:14.939Z,99008.88
2022-08-04T02:39:21.640Z,99013.94
2022-08-04T02:44:24.972Z,99005.72
2022-08-04T02:49:33.568Z,98996.44
2022-08-04T02:54:41.493Z,98997.63
2022-08-04T03:00:01.728Z,98997.38
2022-08-04T03:05:17.263Z,99003.50
2022-08-04T03:10:38.756Z,99000.66
2022-08-04T03:16:05.044Z,98998.84
2022-08-04T03:21:41.683Z,99003.13
2022-08-04T03:27:01.946Z,99002.09
2022-08-04T03:32:39.330Z,99002.97
2022-08-04T03:38:17.786Z,99007.25
2022-08-04T03:43:57.581Z,99007.50
2022-08-04T03:49:44.145Z,99010.72
2022-08-04T03:55:31.886Z,99009.66
2022-08-04T04:00:46.683Z,99010.97
2022-08-04T04:06:31.658Z,99010.13
2022-08-04T04:12:00.417Z,99013.81
2022-08-04T04:17:21.754Z,99003.63
2022-08-04T04:22:45.781Z,99007.94
2022-08-04T04:28:44.184Z,99007.72
2022-08-04T04:33:57.103Z,99009.63
2022-08-04T04:39:13.727Z,99004.63
2022-08-04T04:44:52.106Z,99023.06
2022-08-04T04:50:03.313Z,99016.53
2022-08-04T04:55:19.534Z,99018.47
2022-08-04T05:00:26.225Z,99020.84
2022-08-04T05:05:38.502Z,99021.81
2022-08-04T05:10:58.047Z,99020.38
2022-08-04T05:16:08.772Z,99012.75
2022-08-04T05:21:24.447Z,99012.00
2022-08-04T05:26:33.741Z,99017.41
2022-08-04T05:31:42.342Z,99009.00
2022-08-04T05:36:49.079Z,99004.53
2022-08-04T05:41:55.612Z,99008.97
2022-08-04T05:47:04.853Z,99011.66
2022-08-04T05:52:09.004Z,99010.16
2022-08-04T05:57:13.205Z,99012.47
2022-08-04T06:02:20.229Z,99009.50
2022-08-04T06:07:23.454Z,99010.84
2022-08-04T06:12:33.753Z,99011.00
2022-08-04T06:18:33.429Z,99013.69
2022-08-04T06:23:12.604Z,99017.16
2022-08-04T06:28:17.756Z,99018.31
2022-08-04T06:33:33.485Z,99026.00
2022-08-04T06:38:58.790Z,99023.22
2022-08-04T06:44:06.096Z,99019.00
2022-08-04T06:49:11.635Z,99024.78
2022-08-04T06:54:14.797Z,99018.50
2022-08-04T06:59:18.683Z,99019.38
2022-08-04T07:04:23.102Z,99014.66
2022-08-04T07:09:26.206Z,99017.94
2022-08-04T07:14:29.962Z,99010.72
2022-08-04T07:19:34.816Z,99011.00
2022-08-04T07:24:41.116Z,99011.31
2022-08-04T07:29:46.069Z,99011.06
2022-08-04T07:34:51.509Z,99011.66
2022-08-04T07:39:55.856Z,99006.22
2022-08-04T07:44:59.572Z,99001.56
2022-08-04T07:50:04.148Z,98998.53
2022-08-04T07:55:08.440Z,99004.94
2022-08-04T08:00:14.860Z,98998.06
2022-08-04T08:05:21.382Z,98997.63
2022-08-04T08:10:24.794Z,98997.56
2022-08-04T08:15:27.834Z,98989.47
2022-08-04T08:20:33.731Z,98995.13
2022-08-04T08:25:38.377Z,98977.41
2022-08-04T08:30:41.902Z,98976.59
2022-08-04T08:35:55.723Z,98983.47
2022-08-04T08:41:24.885Z,98969.66
2022-08-04T08:46:49.670Z,98972.69
2022-08-04T08:52:08.801Z,98979.22
2022-08-04T08:57:26.925Z,98983.19
2022-08-04T09:03:04.066Z,98973.53
2022-08-04T09:08:24.243Z,98972.06
2022-08-04T09:13:33.890Z,98986.44
2022-08-04T09:18:43.253Z,98975.28
2022-08-04T09:23:53.265Z,98966.91
2022-08-04T09:29:08.655Z,98965.09
2022-08-04T09:34:18.352Z,98966.22
2022-08-04T09:39:30.155Z,98966.63
2022-08-04T09:44:54.009Z,98961.94
2022-08-04T09:50:10.397Z,98960.25
2022-08-04T09:55:25.601Z,98947.94
2022-08-04T10:00:41.356Z,98958.84
2022-08-04T10:06:08.216Z,98952.22
2022-08-04T10:11:17.670Z,98941.66
2022-08-04T10:16:45.305Z,98940.72
2022-08-04T10:22:28.376Z,98938.53
2022-08-04T10:27:37.816Z,98944.00
2022-08-04T10:32:46.751Z,98947.53
2022-08-04T10:38:02.089Z,98939.47
2022-08-04T10:43:21.988Z,98941.31
2022-08-04T10:48:35.290Z,98930.56
2022-08-04T10:53:40.071Z,98920.78
2022-08-04T10:58:50.775Z,98916.91
2022-08-04T11:03:59.938Z,98921.94
2022-08-04T11:09:05.237Z,98904.72
2022-08-04T11:14:24.290Z,98910.47
2022-08-04T11:19:42.632Z,98914.97
2022-08-04T11:24:55.126Z,98913.09
2022-08-04T11:30:04.536Z,98915.38
2022-08-04T11:35:13.459Z,98904.34
2022-08-04T11:40:24.083Z,98908.97
2022-08-04T11:45:35.222Z,98912.56
2022-08-04T11:50:41.651Z,98906.75
2022-08-04T11:56:08.301Z,98909.25
2022-08-04T12:01:21.580Z,98909.31
2022-08-04T12:06:31.792Z,98899.38
2022-08-04T12:11:48.252Z,98884.84
2022-08-04T12:17:01.108Z,98883.53
2022-08-04T12:22:09.907Z,98887.00
2022-08-04T12:27:18.172Z,98880.13
2022-08-04T12:32:27.281Z,98878.00
2022-08-04T12:37:43.268Z,98864.13
2022-08-04T12:43:00.063Z,98875.28
2022-08-04T12:48:07.437Z,98875.50
2022-08-04T12:53:19.361Z,98860.31
2022-08-04T12:58:43.293Z,98861.78
2022-08-04T13:03:53.709Z,98850.34
2022-08-04T13:09:03.451Z,98839.31
2022-08-04T13:14:25.965Z,98840.94
2022-08-04T13:19:41.187Z,98837.25
2022-08-04T13:24:56.985Z,98831.59
2022-08-04T13:30:14.739Z,98838.50
2022-08-04T13:35:56.001Z,98823.56
2022-08-04T13:40:54.141Z,98824.13
2022-08-04T13:46:01.842Z,98828.88
2022-08-04T13:51:09.096Z,98832.25
2022-08-04T13:56:17.300Z,98827.97
2022-08-04T14:01:35.607Z,98822.00
2022-08-04T14:06:48.997Z,98814.53
2022-08-04T14:12:06.305Z,98810.13
2022-08-04T14:17:20.135Z,98802.41
2022-08-04T14:22:36.723Z,98796.28
2022-08-04T14:27:45.315Z,98796.31
2022-08-04T14:32:57.889Z,98795.97
2022-08-04T14:38:04.208Z,98796.22
2022-08-04T14:43:09.576Z,98787.31
2022-08-04T14:48:14.116Z,98784.09
2022-08-04T14:53:20.379Z,98787.03
2022-08-04T14:58:34.551Z,98779.72
2022-08-04T15:03:49.869Z,98780.16
2022-08-04T15:08:59.092Z,98776.66
2022-08-04T15:14:03.135Z,98766.59
2022-08-04T15:19:08.377Z,98766.09
2022-08-04T15:24:13.328Z,98766.59
2022-08-04T15:29:26.563Z,98756.06
2022-08-04T15:34:29.670Z,98755.22
2022-08-04T15:39:39.660Z,98744.22
2022-08-04T15:45:05.794Z,98756.88
2022-08-04T15:50:10.769Z,98751.28
2022-08-04T15:55:35.952Z,98750.94
2022-08-04T16:01:17.676Z,98743.34
2022-08-04T16:06:44.769Z,98746.06
2022-08-04T16:11:49.198Z,98734.75
2022-08-04T16:16:52.263Z,98736.56
2022-08-04T16:21:56.763Z,98734.72
2022-08-04T16:27:02.154Z,98741.06
2022-08-04T16:32:25.375Z,98734.78
2022-08-04T16:37:34.878Z,98736.34
2022-08-04T16:42:39.685Z,98731.72
2022-08-04T16:48:02.388Z,98719.28
2022-08-04T16:53:14.680Z,98723.97
2022-08-04T16:58:37.561Z,98724.00
2022-08-04T17:03:55.606Z,98721.78
2022-08-04T17:09:06.462Z,98721.03
2022-08-04T17:14:11.750Z,98719.88
2022-08-04T17:19:23.840Z,98715.97
2022-08-04T17:24:29.835Z,98713.22
2022-08-04T17:35:01.584Z,98720.22
2022-08-04T17:40:12.905Z,98719.81
2022-08-04T17:50:43.771Z,98723.09
2022-08-04T17:55:49.439Z,98721.13
2022-08-04T18:01:24.236Z,98718.97
2022-08-04T18:06:27.455Z,98731.25
2022-08-04T18:11:41.935Z,98731.59
2022-08-04T18:16:47.066Z,98731.66
2022-08-04T18:21:59.659Z,98726.09
2022-08-04T18:27:06.667Z,98731.00
2022-08-04T18:32:11.648Z,98724.81
2022-08-04T18:38:03.831Z,98729.03
2022-08-04T18:42:39.062Z,98741.94
2022-08-04T18:47:58.251Z,98744.34
2022-08-04T18:53:01.862Z,98745.94
2022-08-04T18:58:11.897Z,98743.59
2022-08-04T19:03:23.068Z,98742.22
2022-08-04T19:08:33.531Z,98757.03
2022-08-04T19:13:38.358Z,98754.13
2022-08-04T19:18:42.954Z,98752.97
2022-08-04T19:24:28.616Z,98751.72
2022-08-04T19:29:09.203Z,98757.44
2022-08-04T19:34:13.741Z,98759.09
2022-08-04T19:39:18.108Z,98751.56
2022-08-04T19:44:24.641Z,98751.13
2022-08-04T19:50:04.909Z,98745.25
2022-08-04T19:54:56.917Z,98755.28
2022-08-04T20:00:00.046Z,98758.81
2022-08-04T20:05:08.774Z,98754.28
2022-08-04T20:10:13.020Z,98755.81
2022-08-04T20:15:16.761Z,98754.22
2022-08-04T20:20:21.174Z,98762.41
2022-08-04T20:25:37.419Z,98753.28
2022-08-04T20:30:42.125Z,98754.66
2022-08-04T20:36:05.726Z,98756.13
2022-08-04T20:41:09.473Z,98754.47
2022-08-04T20:46:18.004Z,98762.97
2022-08-04T20:51:31.640Z,98764.91
2022-08-04T20:56:36.403Z,98763.31
2022-08-04T21:01:39.495Z,98767.41
2022-08-04T21:06:50.126Z,98762.34
2022-08-04T21:11:53.301Z,98762.00
2022-08-04T21:16:57.598Z,98769.19
2022-08-04T21:22:04.214Z,98764.47
2022-08-04T21:27:09.662Z,98767.34
2022-08-04T21:32:12.927Z,98767.09
2022-08-04T21:37:18.419Z,98765.16
2022-08-04T21:42:29.704Z,98757.31
2022-08-04T21:47:45.822Z,98758.72
2022-08-04T21:52:53.659Z,98761.34
2022-08-04T21:57:58.732Z,98758.63
2022-08-04T22:03:03.279Z,98761.25
2022-08-04T22:08:07.786Z,98754.50
2022-08-04T22:13:23.060Z,98749.72
2022-08-04T22:18:46.024Z,98753.28
2022-08-04T22:23:51.553Z,98755.97
2022-08-04T22:28:55.184Z,98752.47
2022-08-04T22:33:58.604Z,98745.78
2022-08-04T22:39:07.518Z,98742.16
2022-08-04T22:44:15.347Z,98752.91
2022-08-04T22:49:19.184Z,98754.09
2022-08-04T22:54:29.906Z,98751.88
2022-08-04T22:59:34.882Z,98749.19
2022-08-04T23:04:37.901Z,98743.44
2022-08-04T23:09:50.842Z,98737.22
2022-08-04T23:14:54.941Z,98742.66
2022-08-04T23:19:59.958Z,98739.66
2022-08-04T23:25:04.989Z,98736.88
2022-08-04T23:30:09.083Z,98736.72
2022-08-04T23:35:12.222Z,98728.53
2022-08-04T23:40:33.435Z,98723.34
2022-08-04T23:46:06.820Z,98724.44
2022-08-04T23:51:14.568Z,98721.75
2022-08-04T23:56:20.056Z,98726.16
